createdAt,value
2017-01-14T00:00:52.725Z,18.91
2017-01-14T00:02:03.469Z,18.91
2017-01-14T00:03:14.218Z,18.91
2017-01-14T00:04:24.943Z,18.82
2017-01-14T00:05:35.301Z,18.91
2017-01-14T00:06:46.027Z,18.82
2017-01-14T00:07:56.360Z,18.73
2017-01-14T00:09:06.299Z,18.91
2017-01-14T00:10:17.048Z,18.73
2017-01-14T00:11:27.381Z,19.2
2017-01-14T00:12:37.707Z,19.11
2017-01-14T00:13:48.047Z,18.82
2017-01-14T00:14:58.840Z,18.73
2017-01-14T00:16:09.570Z,18.91
2017-01-14T00:17:20.335Z,18.91
2017-01-14T00:18:30.671Z,18.63
2017-01-14T00:19:40.997Z,18.91
2017-01-14T00:20:51.320Z,19.01
2017-01-14T00:22:01.272Z,18.63
2017-01-14T00:23:11.999Z,18.73
2017-01-14T00:24:21.538Z,18.91
2017-01-14T00:25:32.267Z,18.91
2017-01-14T00:26:43.035Z,18.82
2017-01-14T00:27:53.759Z,18.73
2017-01-14T00:29:04.097Z,18.63
2017-01-14T00:30:14.827Z,18.73
2017-01-14T00:31:25.557Z,18.82
2017-01-14T00:32:36.027Z,18.63
2017-01-14T00:33:46.766Z,18.82
2017-01-14T00:34:57.103Z,18.91
2017-01-14T00:36:07.941Z,18.81
2017-01-14T00:37:17.490Z,18.73
2017-01-14T00:38:27.432Z,18.53
2017-01-14T00:39:38.148Z,18.63
2017-01-14T00:40:48.882Z,18.44
2017-01-14T00:41:59.624Z,18.53
2017-01-14T00:43:09.956Z,18.52
2017-01-14T00:44:20.687Z,18.34
2017-01-14T00:45:31.026Z,18.44
2017-01-14T00:46:41.361Z,18.34
2017-01-14T00:47:52.107Z,18.34
2017-01-14T00:49:01.637Z,18.53
2017-01-14T00:50:11.976Z,18.63
2017-01-14T00:51:22.319Z,18.52
2017-01-14T00:52:32.660Z,18.52
2017-01-14T00:53:43.383Z,18.91
2017-01-14T00:54:53.713Z,18.91
2017-01-14T00:56:04.468Z,18.53
2017-01-14T00:57:14.404Z,18.53
2017-01-14T00:58:24.736Z,18.91
2017-01-14T00:59:35.076Z,18.62
2017-01-14T01:00:45.902Z,18.81
2017-01-14T01:01:56.676Z,18.91
2017-01-14T01:03:07.003Z,18.63
2017-01-14T01:04:17.327Z,18.52
2017-01-14T01:05:28.059Z,18.34
2017-01-14T01:06:38.398Z,18.43
2017-01-14T01:07:48.763Z,18.44
2017-01-14T01:08:59.105Z,18.44
2017-01-14T01:10:09.824Z,18.53
2017-01-14T01:11:20.562Z,18.53
2017-01-14T01:12:30.910Z,18.44
2017-01-14T01:13:41.843Z,18.53
2017-01-14T01:14:52.596Z,18.52
2017-01-14T01:16:03.315Z,18.44
2017-01-14T01:17:12.855Z,18.44
2017-01-14T01:18:23.175Z,18.43
2017-01-14T01:19:33.914Z,18.53
2017-01-14T01:20:43.850Z,18.53
2017-01-14T01:21:53.802Z,18.52
2017-01-14T01:23:04.525Z,18.33
2017-01-14T01:24:14.880Z,18.44
2017-01-14T01:25:25.252Z,18.44
2017-01-14T01:26:35.584Z,18.24
2017-01-14T01:27:45.920Z,18.44
2017-01-14T01:28:56.669Z,18.24
2017-01-14T01:30:06.989Z,18.24
2017-01-14T01:31:17.300Z,18.44
2017-01-14T01:32:28.016Z,18.53
2017-01-14T01:33:38.358Z,18.44
2017-01-14T01:34:49.081Z,18.43
2017-01-14T01:35:59.859Z,18.53
2017-01-14T01:37:10.193Z,18.52
2017-01-14T01:38:20.940Z,18.44
2017-01-14T01:39:31.673Z,18.24
2017-01-14T01:40:42.016Z,18.24
2017-01-14T01:41:52.349Z,18.24
2017-01-14T01:43:02.672Z,18.24
2017-01-14T01:44:12.630Z,18.24
2017-01-14T01:45:23.357Z,18.24
2017-01-14T01:46:33.680Z,18.34
2017-01-14T01:47:44.012Z,18.44
2017-01-14T01:48:54.383Z,18.52
2017-01-14T01:50:05.100Z,18.43
2017-01-14T01:51:15.423Z,18.43
2017-01-14T01:52:24.975Z,18.24
2017-01-14T01:53:34.623Z,18.24
2017-01-14T01:54:44.559Z,18.33
2017-01-14T01:55:54.915Z,18.34
2017-01-14T01:57:05.452Z,18.33
2017-01-14T01:58:15.391Z,18.15
2017-01-14T01:59:25.314Z,18.24
2017-01-14T02:00:36.044Z,18.43
2017-01-14T02:01:46.774Z,18.34
2017-01-14T02:02:57.567Z,18.43
2017-01-14T02:04:08.351Z,18.34
2017-01-14T02:05:18.684Z,18.34
2017-01-14T02:06:29.401Z,18.33
2017-01-14T02:07:39.730Z,18.05
2017-01-14T02:08:49.670Z,18.15
2017-01-14T02:10:00.399Z,17.96
2017-01-14T02:11:11.128Z,18.05
2017-01-14T02:12:21.462Z,18.33
2017-01-14T02:13:31.802Z,18.33
2017-01-14T02:14:42.140Z,18.24
2017-01-14T02:15:52.463Z,18.34
2017-01-14T02:17:02.793Z,18.33
2017-01-14T02:18:13.513Z,18.33
2017-01-14T02:19:23.865Z,18.43
2017-01-14T02:20:34.195Z,18.43
2017-01-14T02:21:44.527Z,18.04
2017-01-14T02:22:54.847Z,18.04
2017-01-14T02:24:05.605Z,18.43
2017-01-14T02:25:15.151Z,18.33
2017-01-14T02:26:25.896Z,18.24
2017-01-14T02:27:35.836Z,18.43
2017-01-14T02:28:46.559Z,18.04
2017-01-14T02:29:56.901Z,18.04
2017-01-14T02:31:07.640Z,17.94
2017-01-14T02:32:18.364Z,17.94
2017-01-14T02:33:28.690Z,17.86
2017-01-14T02:34:39.017Z,17.76
2017-01-14T02:35:49.346Z,17.86
2017-01-14T02:36:59.682Z,17.76
2017-01-14T02:38:10.009Z,17.94
2017-01-14T02:39:20.729Z,17.94
2017-01-14T02:40:31.049Z,17.85
2017-01-14T02:41:41.381Z,18.04
2017-01-14T02:42:52.099Z,18.14
2017-01-14T02:44:02.427Z,18.14
2017-01-14T02:45:13.154Z,17.96
2017-01-14T02:46:23.486Z,17.85
2017-01-14T02:47:33.435Z,17.76
2017-01-14T02:48:43.762Z,18.04
2017-01-14T02:49:54.188Z,17.94
2017-01-14T02:51:04.507Z,17.94
2017-01-14T02:52:15.234Z,17.85
2017-01-14T02:53:25.577Z,17.94
2017-01-14T02:54:36.323Z,17.94
2017-01-14T02:55:47.036Z,17.94
2017-01-14T02:56:56.575Z,18.05
2017-01-14T02:58:07.298Z,17.94
2017-01-14T02:59:17.228Z,17.85
2017-01-14T03:00:27.564Z,18.04
2017-01-14T03:01:38.012Z,18.04
2017-01-14T03:02:48.373Z,17.94
2017-01-14T03:03:59.093Z,17.56
2017-01-14T03:05:09.910Z,17.76
2017-01-14T03:06:20.630Z,17.66
2017-01-14T03:07:30.959Z,17.76
2017-01-14T03:08:40.895Z,17.66
2017-01-14T03:09:51.221Z,17.66
2017-01-14T03:11:01.157Z,17.66
2017-01-14T03:12:11.477Z,17.76
2017-01-14T03:13:21.858Z,17.85
2017-01-14T03:14:32.191Z,17.57
2017-01-14T03:15:42.518Z,17.66
2017-01-14T03:16:53.260Z,17.76
2017-01-14T03:18:03.580Z,17.66
2017-01-14T03:19:13.906Z,17.56
2017-01-14T03:20:24.639Z,17.56
2017-01-14T03:21:35.356Z,17.66
2017-01-14T03:22:45.686Z,17.56
2017-01-14T03:23:56.015Z,17.76
2017-01-14T03:25:06.390Z,17.85
2017-01-14T03:26:17.109Z,17.85
2017-01-14T03:27:27.849Z,17.76
2017-01-14T03:28:38.182Z,17.56
2017-01-14T03:29:48.935Z,17.76
2017-01-14T03:30:59.647Z,17.66
2017-01-14T03:32:10.421Z,17.56
2017-01-14T03:33:21.144Z,17.66
2017-01-14T03:34:31.480Z,17.56
2017-01-14T03:35:41.410Z,17.76
2017-01-14T03:36:52.125Z,17.76
2017-01-14T03:38:02.841Z,17.85
2017-01-14T03:39:13.167Z,17.96
2017-01-14T03:40:23.913Z,17.57
2017-01-14T03:41:34.242Z,17.56
2017-01-14T03:42:44.988Z,17.85
2017-01-14T03:43:55.308Z,17.94
2017-01-14T03:45:06.021Z,17.94
2017-01-14T03:46:16.738Z,17.76
2017-01-14T03:47:26.463Z,17.66
2017-01-14T03:48:36.409Z,17.66
2017-01-14T03:49:46.735Z,17.66
2017-01-14T03:50:57.157Z,17.47
2017-01-14T03:52:07.086Z,17.76
2017-01-14T03:53:17.810Z,17.94
2017-01-14T03:54:28.527Z,17.47
2017-01-14T03:55:38.857Z,17.66
2017-01-14T03:56:49.228Z,17.57
2017-01-14T03:57:59.976Z,17.56
2017-01-14T03:59:10.697Z,17.56
2017-01-14T04:00:21.419Z,17.47
2017-01-14T04:01:31.351Z,17.47
2017-01-14T04:02:42.098Z,17.37
2017-01-14T04:03:52.892Z,17.47
2017-01-14T04:05:02.860Z,17.47
2017-01-14T04:06:13.186Z,17.47
2017-01-14T04:07:23.915Z,17.38
2017-01-14T04:08:34.239Z,17.37
2017-01-14T04:09:44.569Z,17.47
2017-01-14T04:10:55.283Z,17.47
2017-01-14T04:12:05.998Z,17.37
2017-01-14T04:13:16.341Z,17.47
2017-01-14T04:14:26.658Z,17.47
2017-01-14T04:15:36.581Z,17.56
2017-01-14T04:16:46.536Z,17.37
2017-01-14T04:17:56.866Z,17.47
2017-01-14T04:19:07.585Z,17.66
2017-01-14T04:20:17.519Z,17.47
2017-01-14T04:21:28.242Z,17.37
2017-01-14T04:22:38.575Z,17.19
2017-01-14T04:23:49.301Z,17.47
2017-01-14T04:24:59.231Z,17.27
2017-01-14T04:26:09.951Z,17.47
2017-01-14T04:27:20.277Z,17.08
2017-01-14T04:28:29.810Z,17.27
2017-01-14T04:29:40.133Z,17.37
2017-01-14T04:30:50.841Z,17.56
2017-01-14T04:32:01.558Z,17.56
2017-01-14T04:33:12.271Z,17.08
2017-01-14T04:34:23.023Z,17.27
2017-01-14T04:35:33.765Z,17.27
2017-01-14T04:36:44.133Z,17.18
2017-01-14T04:37:54.655Z,17.47
2017-01-14T04:39:04.981Z,17.38
2017-01-14T04:40:15.695Z,17.38
2017-01-14T04:41:26.418Z,17.08
2017-01-14T04:42:36.745Z,17.27
2017-01-14T04:43:46.722Z,17.27
2017-01-14T04:44:57.244Z,16.99
2017-01-14T04:46:07.573Z,17.27
2017-01-14T04:47:18.294Z,17.27
2017-01-14T04:48:28.626Z,17.18
2017-01-14T04:49:38.149Z,16.89
2017-01-14T04:50:48.885Z,17.19
2017-01-14T04:51:59.210Z,17.08
2017-01-14T04:53:09.548Z,16.99
2017-01-14T04:54:19.875Z,16.99
2017-01-14T04:55:29.416Z,16.9
2017-01-14T04:56:39.740Z,17.08
2017-01-14T04:57:50.467Z,17.37
2017-01-14T04:59:00.806Z,17.08
2017-01-14T05:00:11.529Z,17.08
2017-01-14T05:01:21.874Z,17.18
2017-01-14T05:02:32.207Z,17.18
2017-01-14T05:03:42.543Z,17.18
2017-01-14T05:04:53.260Z,16.99
2017-01-14T05:06:03.586Z,16.99
2017-01-14T05:07:14.306Z,16.99
2017-01-14T05:08:24.626Z,16.99
2017-01-14T05:09:34.950Z,16.89
2017-01-14T05:10:45.276Z,16.7
2017-01-14T05:11:55.606Z,16.8
2017-01-14T05:13:06.320Z,16.8
2017-01-14T05:14:17.045Z,16.8
2017-01-14T05:15:27.763Z,16.9
2017-01-14T05:16:38.479Z,16.8
2017-01-14T05:17:49.200Z,16.89
2017-01-14T05:18:59.126Z,16.89
2017-01-14T05:20:09.456Z,16.99
2017-01-14T05:21:20.166Z,16.89
2017-01-14T05:22:30.879Z,17.18
2017-01-14T05:23:41.599Z,16.99
2017-01-14T05:24:52.323Z,16.99
2017-01-14T05:26:02.662Z,17.18
2017-01-14T05:27:12.588Z,17.08
2017-01-14T05:28:22.918Z,16.99
2017-01-14T05:29:33.651Z,16.89
2017-01-14T05:30:44.371Z,16.89
2017-01-14T05:31:55.088Z,16.89
2017-01-14T05:33:05.015Z,16.7
2017-01-14T05:34:15.337Z,16.89
2017-01-14T05:35:26.058Z,16.8
2017-01-14T05:36:36.403Z,16.8
2017-01-14T05:37:47.123Z,16.7
2017-01-14T05:38:57.856Z,16.8
2017-01-14T05:40:08.185Z,17.08
2017-01-14T05:41:18.505Z,16.89
2017-01-14T05:42:28.950Z,16.9
2017-01-14T05:43:39.273Z,16.8
2017-01-14T05:44:49.987Z,16.99
2017-01-14T05:46:00.313Z,16.89
2017-01-14T05:47:11.038Z,17.08
2017-01-14T05:48:20.979Z,16.99
2017-01-14T05:49:31.696Z,16.99
2017-01-14T05:50:42.022Z,16.99
2017-01-14T05:51:52.345Z,16.89
2017-01-14T05:53:02.271Z,16.7
2017-01-14T05:54:13.014Z,16.8
2017-01-14T05:55:23.564Z,16.8
2017-01-14T05:56:34.284Z,16.8
2017-01-14T05:57:45.014Z,16.89
2017-01-14T05:58:54.953Z,16.8
2017-01-14T06:00:04.883Z,16.89
2017-01-14T06:01:15.599Z,16.99
2017-01-14T06:02:26.325Z,16.89
2017-01-14T06:03:36.655Z,16.89
2017-01-14T06:04:46.988Z,16.89
2017-01-14T06:05:57.325Z,16.89
2017-01-14T06:07:08.057Z,16.89
2017-01-14T06:08:18.829Z,16.99
2017-01-14T06:09:29.551Z,16.8
2017-01-14T06:10:40.245Z,16.89
2017-01-14T06:11:50.575Z,16.89
2017-01-14T06:13:01.321Z,16.89
2017-01-14T06:14:12.044Z,16.8
2017-01-14T06:15:22.771Z,16.89
2017-01-14T06:16:33.099Z,16.89
2017-01-14T06:17:43.822Z,16.89
2017-01-14T06:18:54.559Z,16.99
2017-01-14T06:20:05.273Z,16.8
2017-01-14T06:21:15.612Z,17.09
2017-01-14T06:22:25.986Z,16.89
2017-01-14T06:23:36.344Z,16.8
2017-01-14T06:24:47.070Z,16.7
2017-01-14T06:25:57.406Z,16.89
2017-01-14T06:27:07.739Z,16.7
2017-01-14T06:28:18.452Z,16.99
2017-01-14T06:29:28.379Z,16.89
2017-01-14T06:30:39.201Z,16.99
2017-01-14T06:31:49.144Z,16.8
2017-01-14T06:32:59.857Z,16.99
2017-01-14T06:34:10.574Z,16.8
2017-01-14T06:35:21.300Z,16.99
2017-01-14T06:36:32.020Z,16.89
2017-01-14T06:37:42.740Z,16.8
2017-01-14T06:38:53.073Z,16.8
2017-01-14T06:40:03.403Z,16.89
2017-01-14T06:41:14.129Z,16.89
2017-01-14T06:42:24.855Z,16.89
2017-01-14T06:43:35.195Z,16.7
2017-01-14T06:44:45.124Z,16.99
2017-01-14T06:45:55.448Z,16.99
2017-01-14T06:47:06.202Z,17.08
2017-01-14T06:48:16.129Z,16.9
2017-01-14T06:49:26.458Z,17.08
2017-01-14T06:50:36.804Z,17.08
2017-01-14T06:51:47.540Z,16.89
2017-01-14T06:52:57.870Z,16.7
2017-01-14T06:54:08.580Z,16.8
2017-01-14T06:55:19.300Z,16.89
2017-01-14T06:56:29.674Z,16.8
2017-01-14T06:57:39.610Z,16.7
2017-01-14T06:58:49.530Z,16.8
2017-01-14T06:59:59.857Z,16.89
2017-01-14T07:01:10.186Z,16.89
2017-01-14T07:02:19.719Z,16.89
2017-01-14T07:03:30.053Z,16.99
2017-01-14T07:04:40.773Z,16.7
2017-01-14T07:05:51.515Z,16.99
2017-01-14T07:07:02.239Z,16.89
2017-01-14T07:08:12.577Z,16.89
2017-01-14T07:09:22.913Z,16.99
2017-01-14T07:10:32.856Z,16.8
2017-01-14T07:11:43.185Z,16.89
2017-01-14T07:12:53.908Z,16.89
2017-01-14T07:14:04.251Z,16.99
2017-01-14T07:15:14.577Z,16.8
2017-01-14T07:16:24.910Z,16.7
2017-01-14T07:17:35.634Z,16.8
2017-01-14T07:18:45.585Z,16.89
2017-01-14T07:19:56.305Z,16.99
2017-01-14T07:21:07.032Z,16.8
2017-01-14T07:22:17.768Z,16.99
2017-01-14T07:23:28.104Z,16.89
2017-01-14T07:24:38.840Z,16.89
2017-01-14T07:25:49.584Z,16.99
2017-01-14T07:27:00.311Z,17.18
2017-01-14T07:28:11.079Z,17.08
2017-01-14T07:29:21.016Z,16.89
2017-01-14T07:30:31.736Z,17.18
2017-01-14T07:31:42.060Z,16.8
2017-01-14T07:32:52.788Z,16.89
2017-01-14T07:34:03.508Z,16.8
2017-01-14T07:35:13.832Z,16.7
2017-01-14T07:36:24.166Z,16.8
2017-01-14T07:37:34.498Z,16.8
2017-01-14T07:38:44.449Z,16.99
2017-01-14T07:39:54.785Z,16.8
2017-01-14T07:41:05.508Z,16.8
2017-01-14T07:42:15.832Z,16.8
2017-01-14T07:43:26.213Z,16.7
2017-01-14T07:44:36.146Z,17.08
2017-01-14T07:45:46.882Z,16.8
2017-01-14T07:46:56.848Z,16.89
2017-01-14T07:48:07.281Z,16.7
2017-01-14T07:49:17.624Z,16.8
2017-01-14T07:50:27.961Z,16.99
2017-01-14T07:51:38.706Z,16.99
2017-01-14T07:52:49.029Z,16.89
2017-01-14T07:53:59.756Z,16.89
2017-01-14T07:55:10.482Z,16.89
2017-01-14T07:56:21.215Z,16.8
2017-01-14T07:57:32.092Z,16.89
2017-01-14T07:58:42.812Z,16.89
2017-01-14T07:59:53.535Z,16.99
2017-01-14T08:01:03.861Z,16.99
2017-01-14T08:02:14.188Z,17.18
2017-01-14T08:03:24.898Z,16.99
2017-01-14T08:04:34.835Z,16.99
2017-01-14T08:05:45.168Z,16.89
2017-01-14T08:06:55.900Z,16.7
2017-01-14T08:08:06.236Z,16.89
2017-01-14T08:09:16.636Z,16.99
2017-01-14T08:10:27.359Z,16.99
2017-01-14T08:11:37.701Z,16.89
2017-01-14T08:12:47.625Z,16.89
2017-01-14T08:13:58.364Z,16.99
2017-01-14T08:15:09.099Z,16.8
2017-01-14T08:16:19.823Z,16.8
2017-01-14T08:17:30.157Z,16.7
2017-01-14T08:18:40.876Z,16.7
2017-01-14T08:19:50.806Z,16.7
2017-01-14T08:21:01.139Z,16.89
2017-01-14T08:22:11.485Z,16.99
2017-01-14T08:23:22.221Z,16.7
2017-01-14T08:24:32.559Z,17.08
2017-01-14T08:25:42.918Z,16.7
2017-01-14T08:26:53.638Z,16.7
2017-01-14T08:28:04.351Z,16.8
2017-01-14T08:29:14.687Z,16.7
2017-01-14T08:30:25.407Z,16.8
2017-01-14T08:31:35.350Z,16.99
2017-01-14T08:32:45.686Z,16.99
2017-01-14T08:33:56.430Z,16.89
2017-01-14T08:35:07.147Z,16.89
2017-01-14T08:36:17.868Z,16.99
2017-01-14T08:37:28.620Z,16.89
2017-01-14T08:38:39.347Z,16.89
2017-01-14T08:39:49.673Z,16.89
2017-01-14T08:41:00.006Z,16.89
2017-01-14T08:42:10.732Z,16.89
2017-01-14T08:43:21.450Z,16.99
2017-01-14T08:44:32.179Z,16.89
2017-01-14T08:45:42.515Z,16.89
2017-01-14T08:46:52.493Z,16.89
2017-01-14T08:48:03.207Z,16.89
2017-01-14T08:49:13.933Z,16.89
2017-01-14T08:50:23.887Z,16.99
2017-01-14T08:51:34.631Z,17.08
2017-01-14T08:52:44.953Z,16.7
2017-01-14T08:53:55.694Z,16.99
2017-01-14T08:55:06.054Z,16.7
2017-01-14T08:56:16.790Z,16.99
2017-01-14T08:57:27.127Z,16.7
2017-01-14T08:58:37.488Z,16.99
2017-01-14T08:59:48.196Z,16.99
2017-01-14T09:00:58.951Z,16.89
2017-01-14T09:02:09.704Z,16.8
2017-01-14T09:03:19.239Z,16.7
2017-01-14T09:04:29.667Z,16.8
2017-01-14T09:05:40.413Z,16.8
2017-01-14T09:06:50.746Z,16.6
2017-01-14T09:08:01.507Z,16.89
2017-01-14T09:09:11.444Z,16.89
2017-01-14T09:10:21.405Z,16.99
2017-01-14T09:11:31.737Z,16.99
2017-01-14T09:12:42.064Z,16.99
2017-01-14T09:13:51.980Z,16.99
2017-01-14T09:15:02.322Z,16.89
2017-01-14T09:16:12.642Z,16.8
2017-01-14T09:17:23.365Z,16.89
2017-01-14T09:18:33.691Z,16.89
2017-01-14T09:19:43.631Z,16.9
2017-01-14T09:20:53.972Z,16.99
2017-01-14T09:22:03.925Z,16.89
2017-01-14T09:23:14.239Z,16.89
2017-01-14T09:24:24.977Z,16.99
2017-01-14T09:25:35.316Z,16.89
2017-01-14T09:26:45.287Z,16.89
2017-01-14T09:27:55.724Z,16.99
2017-01-14T09:29:06.446Z,16.89
2017-01-14T09:30:16.839Z,16.99
2017-01-14T09:31:27.629Z,16.99
2017-01-14T09:32:38.353Z,16.89
2017-01-14T09:33:48.682Z,16.99
2017-01-14T09:34:59.419Z,16.99
2017-01-14T09:36:09.757Z,16.89
2017-01-14T09:37:20.509Z,16.99
2017-01-14T09:38:31.249Z,16.89
2017-01-14T09:39:41.994Z,16.7
2017-01-14T09:40:51.921Z,17.18
2017-01-14T09:42:02.254Z,16.99
2017-01-14T09:43:12.574Z,17.08
2017-01-14T09:44:23.297Z,16.7
2017-01-14T09:45:34.032Z,16.99
2017-01-14T09:46:44.353Z,16.7
2017-01-14T09:47:55.073Z,16.8
2017-01-14T09:49:05.399Z,16.8
2017-01-14T09:50:15.718Z,16.8
2017-01-14T09:51:26.442Z,16.8
2017-01-14T09:52:36.763Z,16.8
2017-01-14T09:53:46.305Z,16.7
2017-01-14T09:54:56.228Z,16.8
2017-01-14T09:56:06.568Z,16.7
2017-01-14T09:57:16.503Z,16.99
2017-01-14T09:58:27.246Z,16.8
2017-01-14T09:59:37.566Z,16.99
2017-01-14T10:00:47.508Z,16.8
2017-01-14T10:01:58.247Z,16.7
2017-01-14T10:03:08.571Z,16.7
2017-01-14T10:04:18.901Z,16.6
2017-01-14T10:05:29.256Z,16.89
2017-01-14T10:06:39.992Z,17.08
2017-01-14T10:07:50.340Z,16.89
2017-01-14T10:09:01.067Z,16.89
2017-01-14T10:10:11.799Z,16.89
2017-01-14T10:11:22.132Z,16.89
2017-01-14T10:12:32.460Z,16.99
2017-01-14T10:13:43.207Z,16.99
2017-01-14T10:14:53.934Z,17.27
2017-01-14T10:16:04.667Z,16.99
2017-01-14T10:17:15.470Z,16.89
2017-01-14T10:18:25.800Z,16.99
2017-01-14T10:19:36.159Z,17.08
2017-01-14T10:20:46.527Z,17.18
2017-01-14T10:21:57.281Z,16.99
2017-01-14T10:23:07.611Z,17.08
2017-01-14T10:24:18.335Z,17.18
2017-01-14T10:25:28.673Z,17.18
2017-01-14T10:26:39.394Z,16.89
2017-01-14T10:27:50.159Z,16.89
2017-01-14T10:29:00.498Z,16.89
2017-01-14T10:30:10.831Z,16.8
2017-01-14T10:31:21.173Z,16.89
2017-01-14T10:32:31.900Z,16.99
2017-01-14T10:33:42.245Z,16.99
2017-01-14T10:34:52.994Z,16.89
2017-01-14T10:36:03.388Z,16.99
2017-01-14T10:37:13.779Z,17.27
2017-01-14T10:38:23.726Z,16.99
2017-01-14T10:39:33.670Z,16.89
2017-01-14T10:40:44.019Z,17.18
2017-01-14T10:41:54.908Z,16.99
2017-01-14T10:43:05.276Z,16.99
2017-01-14T10:44:16.008Z,17.08
2017-01-14T10:45:25.939Z,17.08
2017-01-14T10:46:36.269Z,17.08
2017-01-14T10:47:47.001Z,17.18
2017-01-14T10:48:57.753Z,17.37
2017-01-14T10:50:08.476Z,17.18
2017-01-14T10:51:18.820Z,17.37
2017-01-14T10:52:29.558Z,17.27
2017-01-14T10:53:39.882Z,17.37
2017-01-14T10:54:50.620Z,17.08
2017-01-14T10:56:00.577Z,17.18
2017-01-14T10:57:11.309Z,16.99
2017-01-14T10:58:22.032Z,17.08
2017-01-14T10:59:32.739Z,16.99
2017-01-14T11:00:43.469Z,16.99
2017-01-14T11:01:53.402Z,17.18
2017-01-14T11:03:04.144Z,17.08
2017-01-14T11:04:14.473Z,17.08
2017-01-14T11:05:25.206Z,17.18
2017-01-14T11:06:34.746Z,17.08
2017-01-14T11:07:45.069Z,17.18
2017-01-14T11:08:54.612Z,16.89
2017-01-14T11:10:05.348Z,16.99
2017-01-14T11:11:15.690Z,16.89
2017-01-14T11:12:26.419Z,16.8
2017-01-14T11:13:37.152Z,17.08
2017-01-14T11:14:47.882Z,16.89
2017-01-14T11:15:57.853Z,16.89
2017-01-14T11:17:08.586Z,17.18
2017-01-14T11:18:19.311Z,16.89
2017-01-14T11:19:29.267Z,16.99
2017-01-14T11:20:39.646Z,16.9
2017-01-14T11:21:50.378Z,17.19
2017-01-14T11:23:01.117Z,16.89
2017-01-14T11:24:11.462Z,17.08
2017-01-14T11:25:22.192Z,16.89
2017-01-14T11:26:32.947Z,16.99
2017-01-14T11:27:43.687Z,16.99
2017-01-14T11:28:54.427Z,16.99
2017-01-14T11:30:05.152Z,16.99
2017-01-14T11:31:15.094Z,16.9
2017-01-14T11:32:25.056Z,16.89
2017-01-14T11:33:35.828Z,17.08
2017-01-14T11:34:46.558Z,17.08
2017-01-14T11:35:57.335Z,17.18
2017-01-14T11:37:08.079Z,17.18
2017-01-14T11:38:18.813Z,17.09
2017-01-14T11:39:29.216Z,17.08
2017-01-14T11:40:39.568Z,16.99
2017-01-14T11:41:50.285Z,17.37
2017-01-14T11:43:00.637Z,17.37
2017-01-14T11:44:11.370Z,17.18
2017-01-14T11:45:22.109Z,17.19
2017-01-14T11:46:32.862Z,16.89
2017-01-14T11:47:43.204Z,16.99
2017-01-14T11:48:53.546Z,16.9
2017-01-14T11:50:04.278Z,16.99
2017-01-14T11:51:15.005Z,16.99
2017-01-14T11:52:25.345Z,16.99
2017-01-14T11:53:34.893Z,17.18
2017-01-14T11:54:45.620Z,17.27
2017-01-14T11:55:56.372Z,17.08
2017-01-14T11:57:07.108Z,17.37
2017-01-14T11:58:17.841Z,17.37
2017-01-14T11:59:27.811Z,17.37
2017-01-14T12:00:37.380Z,17.08
2017-01-14T12:01:47.328Z,17.37
2017-01-14T12:02:58.093Z,17.37
2017-01-14T12:04:08.823Z,17.08
2017-01-14T12:05:19.604Z,17.47
2017-01-14T12:06:29.952Z,17.08
2017-01-14T12:07:39.917Z,16.89
2017-01-14T12:08:50.269Z,17.19
2017-01-14T12:09:59.818Z,16.9
2017-01-14T12:11:10.173Z,17.09
2017-01-14T12:12:20.925Z,17.08
2017-01-14T12:13:30.933Z,17.27
2017-01-14T12:14:41.684Z,17.18
2017-01-14T12:15:52.048Z,16.99
2017-01-14T12:17:02.790Z,17.56
2017-01-14T12:18:12.736Z,17.37
2017-01-14T12:19:23.472Z,17.47
2017-01-14T12:20:33.819Z,17.27
2017-01-14T12:21:43.781Z,17.08
2017-01-14T12:22:54.514Z,17.47
2017-01-14T12:24:05.234Z,17.37
2017-01-14T12:25:15.558Z,17.47
2017-01-14T12:26:26.302Z,17.08
2017-01-14T12:27:36.648Z,17.19
2017-01-14T12:28:47.365Z,17.29
2017-01-14T12:29:57.712Z,17.18
2017-01-14T12:31:08.444Z,17.19
2017-01-14T12:32:18.374Z,17.09
2017-01-14T12:33:28.713Z,17.18
2017-01-14T12:34:39.192Z,16.99
2017-01-14T12:35:49.130Z,17.09
2017-01-14T12:36:59.923Z,17.08
2017-01-14T12:38:10.662Z,17.09
2017-01-14T12:39:21.020Z,17.27
2017-01-14T12:40:31.746Z,17.08
2017-01-14T12:41:42.065Z,17.18
2017-01-14T12:42:51.612Z,17.18
2017-01-14T12:44:02.356Z,17.47
2017-01-14T12:45:13.086Z,17.56
2017-01-14T12:46:23.821Z,17.47
2017-01-14T12:47:34.574Z,17.56
2017-01-14T12:48:45.310Z,17.47
2017-01-14T12:49:55.680Z,17.56
2017-01-14T12:51:05.998Z,17.76
2017-01-14T12:52:16.326Z,17.56
2017-01-14T12:53:26.245Z,17.85
2017-01-14T12:54:36.577Z,17.66
2017-01-14T12:55:46.104Z,17.37
2017-01-14T12:56:55.619Z,17.76
2017-01-14T12:58:05.149Z,17.85
2017-01-14T12:59:15.062Z,17.56
2017-01-14T13:00:24.591Z,17.66
2017-01-14T13:01:34.498Z,17.85
2017-01-14T13:02:45.199Z,17.56
2017-01-14T13:03:55.108Z,17.76
2017-01-14T13:05:05.419Z,17.76
2017-01-14T13:06:16.116Z,17.56
2017-01-14T13:07:26.825Z,17.56
2017-01-14T13:08:37.133Z,17.76
2017-01-14T13:09:47.030Z,17.76
2017-01-14T13:10:56.939Z,17.66
2017-01-14T13:12:07.239Z,17.66
2017-01-14T13:13:17.152Z,17.37
2017-01-14T13:14:27.453Z,17.76
2017-01-14T13:15:37.368Z,17.76
2017-01-14T13:16:47.667Z,17.76
2017-01-14T13:17:57.185Z,17.47
2017-01-14T13:19:07.091Z,17.76
2017-01-14T13:20:17.637Z,17.76
2017-01-14T13:21:27.165Z,17.76
2017-01-14T13:22:37.476Z,17.56
2017-01-14T13:23:48.171Z,17.66
2017-01-14T13:24:58.080Z,17.76
2017-01-14T13:26:08.804Z,17.56
2017-01-14T13:27:19.096Z,17.66
2017-01-14T13:28:28.222Z,17.66
2017-01-14T13:29:38.918Z,17.66
2017-01-14T13:30:48.829Z,17.56
2017-01-14T13:31:58.757Z,17.56
2017-01-14T13:33:09.056Z,17.56
2017-01-14T13:34:18.982Z,17.76
2017-01-14T13:35:29.294Z,17.66
2017-01-14T13:36:38.814Z,17.66
2017-01-14T13:37:48.739Z,17.76
2017-01-14T13:38:58.241Z,17.66
2017-01-14T13:40:08.141Z,17.56
2017-01-14T13:41:18.444Z,17.76
2017-01-14T13:42:28.760Z,17.76
2017-01-14T13:43:39.464Z,17.66
2017-01-14T13:44:48.986Z,17.94
2017-01-14T13:45:58.939Z,17.76
2017-01-14T13:47:08.456Z,17.47
2017-01-14T13:48:19.155Z,17.76
2017-01-14T13:49:29.465Z,17.56
2017-01-14T13:50:40.169Z,17.56
2017-01-14T13:51:50.481Z,17.96
2017-01-14T13:53:00.376Z,17.37
2017-01-14T13:54:11.072Z,17.85
2017-01-14T13:55:20.972Z,17.67
2017-01-14T13:56:31.269Z,17.66
2017-01-14T13:57:41.194Z,17.57
2017-01-14T13:58:51.518Z,17.56
2017-01-14T14:00:01.434Z,17.47
2017-01-14T14:01:11.350Z,17.57
2017-01-14T14:02:21.643Z,17.56
2017-01-14T14:03:31.559Z,17.37
2017-01-14T14:04:41.876Z,17.56
2017-01-14T14:05:52.184Z,17.57
2017-01-14T14:07:02.488Z,17.66
2017-01-14T14:08:12.785Z,17.56
2017-01-14T14:09:23.479Z,17.66
2017-01-14T14:10:33.791Z,17.85
2017-01-14T14:11:44.608Z,17.96
2017-01-14T14:12:54.935Z,17.85
2017-01-14T14:14:05.228Z,17.57
2017-01-14T14:15:15.538Z,17.56
2017-01-14T14:16:25.447Z,17.56
2017-01-14T14:17:36.144Z,17.66
2017-01-14T14:18:46.061Z,17.67
2017-01-14T14:19:56.362Z,17.66
2017-01-14T14:21:06.287Z,17.47
2017-01-14T14:22:16.981Z,17.66
2017-01-14T14:23:26.502Z,17.56
2017-01-14T14:24:36.815Z,17.66
2017-01-14T14:25:47.535Z,17.56
2017-01-14T14:26:57.047Z,17.57
2017-01-14T14:28:06.565Z,17.56
2017-01-14T14:29:17.270Z,17.47
2017-01-14T14:30:27.972Z,17.37
2017-01-14T14:31:38.277Z,17.47
2017-01-14T14:32:48.182Z,17.47
2017-01-14T14:33:58.087Z,17.67
2017-01-14T14:35:07.985Z,17.38
2017-01-14T14:36:17.887Z,17.57
2017-01-14T14:37:27.797Z,17.57
2017-01-14T14:38:38.100Z,17.47
2017-01-14T14:39:48.398Z,17.47
2017-01-14T14:40:59.103Z,17.47
2017-01-14T14:42:09.407Z,17.56
2017-01-14T14:43:20.100Z,17.67
2017-01-14T14:44:30.047Z,17.47
2017-01-14T14:45:40.739Z,17.57
2017-01-14T14:46:51.446Z,17.57
2017-01-14T14:48:01.753Z,17.57
2017-01-14T14:49:12.465Z,17.57
2017-01-14T14:50:22.360Z,17.66
2017-01-14T14:51:32.255Z,17.56
2017-01-14T14:52:42.587Z,17.56
2017-01-14T14:53:52.899Z,17.56
2017-01-14T14:55:03.195Z,17.47
2017-01-14T14:56:13.121Z,17.76
2017-01-14T14:57:23.419Z,17.47
2017-01-14T14:58:34.109Z,17.47
2017-01-14T14:59:44.405Z,17.56
2017-01-14T15:00:54.319Z,17.57
2017-01-14T15:02:05.025Z,17.66
2017-01-14T15:03:15.313Z,17.47
2017-01-14T15:04:24.830Z,17.56
2017-01-14T15:05:34.765Z,17.38
2017-01-14T15:06:44.700Z,17.47
2017-01-14T15:07:55.006Z,17.57
2017-01-14T15:09:05.317Z,17.47
2017-01-14T15:10:15.643Z,17.57